Levelock, AK

6:54 PM AKDT on July 30, 2016 (GMT -0800)
Iliamna | | Change Station

Elev 161 ft 59.75 °N, 154.91 °W | Updated 54 minutes ago

Overcast
Overcast
59 °F
Feels Like 59 °F
N
4
Wind Variable Wind from SE

Today
High -- | Low -- °F
--% Chance of Precip.
Yesterday
High -- | Low -- °F
Precip. -- in
Pressure 30.07 in
Visibility 10.0 miles
Clouds Scattered Clouds 3000 ft
Overcast 3600 ft
Dew Point 53 °F
Humidity 81%
Rainfall 0.08 in
Snow Depth Not available.
5:55 AM 10:48 PM
Waning Crescent, 9% visible
SPECI PAIL 310200Z 13003KT 10SM SCT030 OVC036 15/12 A3007 RMK AO2 T01500117
Pressure 30.07 in
Visibility 10.0 miles
Clouds Scattered Clouds 3000 ft
Overcast 3600 ft
Dew Point 53 °F
Humidity 81%
Rainfall 0.08 in
Snow Depth Not available.
5:55 AM 10:48 PM
Waning Crescent, 9% visible
SPECI PAIL 310200Z 13003KT 10SM SCT030 OVC036 15/12 A3007 RMK AO2 T01500117

10-Day Weather Forecast

Almanac

Astronomy

Jul. 30, 2016 Rise Set
Actual Time
Civil Twilight
Nautical Twilight
Astronomical Twilight
Moon
Length of Visible Light
Length of Day
Tomorrow will be .
, % of the Moon is Illuminated

Today's Extremes

State Highs State Lows

Community

WunderPhotos

Upload Photos

1,928,715 photos uploaded!

WunderBlog® & News

Nearby

Air Quality

  Air Quality AQ Index Pollutant
Not available.

Snow Depth

Station Depth Elevation

Earthquake Activity

City Distance Mag. Time & Date
Minimum magnitude displayed is 2.5.

Coastal Water Temperatures

Place Temperature

Stations

Nearby Weather Stations

Station Location Temp. Windchill Dew Point Humidity Wind Precip. Elev Updated Type
                   

Watches & Warnings

There are currently no watches in effect.